Flight Track Log - Related Links

Times and Time Zones

All times are in EDT time to prevent confusion due to time zone crossing. See the GJS3707 flight status page for this flight to view local times or setup timezone preferences in your user account.

Time Position Orientation Groundspeed Altitude Reporting Facility
EDT Latitude Longitude Course Direction KTS MPH feet Rate Location/Type
Mon 03:28:50 PM 43.6356 -116.3317 331° Northwest 235 270 6,200  Level Salt Lake Center
Mon 03:29:52 PM 43.7019 -116.2992 19° North 260 299 8,300 2,226 Climbing Salt Lake Center
Mon 03:30:00 PM 43.6515 -115.5992 78° East  Level FlightAware Approximate
Mon 03:30:54 PM 43.7269 -116.1897 72° East 271 312 10,800  Level Salt Lake Center
Mon 03:31:00 PM 43.6720 -115.4413 83° East  Level FlightAware Approximate
Mon 03:31:56 PM 43.7394 -116.0828 81° East 289 333 12,500  Level Salt Lake Center
Mon 03:32:00 PM 43.6838 -115.2819 65° Northeast  Level FlightAware Approximate
Mon 03:32:58 PM 43.7542 -115.9439 82° East 325 374 14,300  Level Salt Lake Center
Mon 03:33:00 PM 43.7119 -115.1274 81° East  Level FlightAware Approximate
Mon 03:34:00 PM 43.7686 -115.8131 81° East 355 409 15,700  Level Salt Lake Center
Mon 03:35:00 PM 43.7780 -115.6527 85° East  Level Estimated
Mon 03:35:02 PM 43.7825 -115.6772 85° East 371 427 17,400  Level Salt Lake Center
Mon 03:36:04 PM 43.7989 -115.5158 82° East 381 438 19,100 1,645 Climbing Salt Lake Center
Mon 03:37:06 PM 43.8139 -115.3750 82° East 388 447 20,800 1,645 Climbing Salt Lake Center
Mon 03:38:08 PM 43.8300 -115.2086 82° East 391 450 22,500 1,403 Climbing Salt Lake Center
Mon 03:39:10 PM 43.8447 -115.0628 82° East 398 458 23,700 1,317 Climbing Salt Lake Center
Mon 03:40:11 PM 43.8619 -114.8875 82° East 408 470 25,200 1,171 Climbing Salt Lake Center
Mon 03:41:13 PM 43.8767 -114.7358 82° East 415 478 26,100 1,008 Climbing Salt Lake Center
Mon 03:42:16 PM 43.8942 -114.5533 82° East 428 493 27,300 1,016 Climbing Salt Lake Center
Mon 03:43:17 PM 43.9106 -114.3944 82° East 434 499 28,200 976 Climbing Salt Lake Center
Mon 03:44:19 PM 43.9275 -114.2067 83° East 441 507 29,300 968 Climbing Salt Lake Center
Mon 03:45:21 PM 43.9422 -114.0439 83° East 444 511 30,200 919 Climbing Salt Lake Center
Mon 03:46:23 PM 43.9583 -113.8531 83° East 447 514 31,200 878 Climbing Salt Lake Center
Mon 03:47:24 PM 43.9731 -113.6897 83° East 447 514 32,000 829 Climbing Salt Lake Center
Mon 03:48:26 PM 43.9878 -113.5267 83° East 445 512 32,900 919 Climbing Salt Lake Center
Mon 03:49:28 PM 43.9997 -113.3350 85° East 445 512 33,900 774 Climbing Salt Lake Center
Mon 03:50:30 PM 44.0139 -113.1736 83° East 442 509 34,500 537 Climbing Salt Lake Center
Mon 03:51:31 PM 44.0297 -112.9828 83° East 444 511 35,000 244 Climbing Salt Lake Center
Mon 03:52:33 PM 44.0419 -112.8169 84° East 448 516 35,000  Level Salt Lake Center
Mon 03:53:35 PM 44.0564 -112.6225 84° East 452 520 35,000  Level Salt Lake Center
Mon 03:54:36 PM 44.0703 -112.4558 83° East 455 524 35,000  Level Salt Lake Center
Mon 03:55:38 PM 44.0814 -112.2881 85° East 456 525 35,000  Level Salt Lake Center
Mon 03:56:40 PM 44.0889 -112.0950 87° East 450 518 35,000  Level Salt Lake Center
Mon 03:57:41 PM 44.0917 -111.9303 89° East 448 516 35,000  Level Salt Lake Center
Mon 03:58:43 PM 44.0928 -111.7364 89° East 452 520 35,000  Level Salt Lake Center
Mon 03:59:45 PM 44.0933 -111.5700 90° East 453 521 35,000  Level Salt Lake Center
Mon 04:00:46 PM 44.0936 -111.3733 90° East 458 527 35,000  Level Salt Lake Center
Mon 04:01:48 PM 44.0944 -111.2036 90° East 461 531 35,000  Level Salt Lake Center
Mon 04:02:49 PM 44.0942 -111.0053 90° East 464 534 35,000  Level Salt Lake Center
Mon 04:03:51 PM 44.0939 -110.8350 90° East 462 532 35,000  Level Salt Lake Center
Mon 04:04:53 PM 44.0928 -110.6375 90° East 460 529 35,000  Level Salt Lake Center
Mon 04:05:54 PM 44.0928 -110.4708 90° East 454 522 35,000  Level Salt Lake Center
Mon 04:06:56 PM 44.0919 -110.3042 90° East 451 519 35,000  Level Salt Lake Center
Mon 04:07:58 PM 44.0903 -110.1117 91° East 448 516 35,000  Level Salt Lake Center
Mon 04:08:59 PM 44.0892 -109.9475 90° East 446 513 35,000  Level Salt Lake Center
Mon 04:10:01 PM 44.0867 -109.7572 91° East 441 507 35,000  Level Salt Lake Center
Mon 04:11:02 PM 44.0844 -109.5947 91° East 439 505 35,000  Level Salt Lake Center
Mon 04:12:04 PM 44.0822 -109.4225 91° East 434 499 35,000  Level Salt Lake Center
Mon 04:13:06 PM 44.0792 -109.2328 91° East 440 506 35,000  Level Salt Lake Center
Mon 04:14:07 PM 44.0767 -109.0706 91° East 440 506 35,000  Level Salt Lake Center
Mon 04:15:09 PM 44.0731 -108.9089 92° East 438 504 35,000  Level Salt Lake Center
Mon 04:16:11 PM 44.0689 -108.7164 92° East 446 513 35,000  Level Salt Lake Center
Mon 04:17:12 PM 44.0656 -108.5539 92° East 443 510 35,000  Level Salt Lake Center
Mon 04:18:13 PM 44.0608 -108.3647 92° East 441 507 35,000  Level Salt Lake Center
Mon 04:19:15 PM 44.0572 -108.2044 92° East 437 503 35,000  Level Salt Lake Center
Mon 04:20:17 PM 44.0519 -108.0178 92° East 435 501 35,000  Level Salt Lake Center
Mon 04:21:18 PM 44.0467 -107.8600 93° East 431 496 35,000  Level Salt Lake Center
Mon 04:22:20 PM 44.0422 -107.6728 92° East 434 499 35,000  Level Salt Lake Center
Mon 04:23:22 PM 44.0375 -107.5122 92° East 437 503 35,000  Level Salt Lake Center
Mon 04:24:23 PM 44.0319 -107.3519 93° East 436 502 35,000  Level Salt Lake Center
Mon 04:25:25 PM 44.0258 -107.1636 93° East 439 505 35,000  Level Salt Lake Center
Mon 04:26:14 PM 44.0208 -107.0308 93° East 433 498 35,000  Level Denver Center
Mon 04:27:16 PM 44.0164 -106.8631 92° East 433 498 35,000  Level Denver Center
Mon 04:28:17 PM 44.0106 -106.7300 93° East 431 496 35,000  Level Denver Center
Mon 04:29:19 PM 44.0028 -106.5194 93° East 428 493 35,000  Level Denver Center
Mon 04:30:21 PM 44.0000 -106.3611 91° East 427 491 35,000  Level Denver Center
Mon 04:31:23 PM 44.0025 -106.1764 89° East 429 494 35,000  Level Denver Center
Mon 04:32:25 PM 44.0031 -106.0183 90° East 427 491 35,000  Level Denver Center
Mon 04:33:26 PM 44.0036 -105.8361 90° East 424 488 35,000  Level Denver Center
Mon 04:34:28 PM 44.0047 -105.6800 89° East 423 487 35,000  Level Denver Center
Mon 04:35:30 PM 44.0042 -105.5017 90° East 417 480 35,000  Level Denver Center
Mon 04:36:31 PM 44.0039 -105.3514 90° East 410 472 35,000  Level Denver Center
Mon 04:37:33 PM 44.0044 -105.2239 90° East 411 473 35,000  Level Denver Center
Mon 04:38:35 PM 44.0022 -105.0200 91° East 414 476 35,000  Level Denver Center
Mon 04:39:36 PM 44.0028 -104.8919 90° East 415 478 35,000  Level Denver Center
Mon 04:40:38 PM 44.0006 -104.6847 91° East 419 482 35,000  Level Denver Center
Mon 04:41:40 PM 43.9989 -104.5264 91° East 424 488 35,000  Level Denver Center
Mon 04:42:41 PM 43.9986 -104.3683 90° East 427 491 35,000  Level Denver Center
Mon 04:43:43 PM 43.9956 -104.1836 91° East 429 494 35,000  Level Denver Center
Mon 04:44:45 PM 43.9939 -104.0244 91° East 430 495 35,000  Level Denver Center
Mon 04:45:46 PM 43.9917 -103.8375 91° East 431 496 35,000  Level Denver Center
Mon 04:46:48 PM 43.9883 -103.6753 92° East 436 502 35,000  Level Denver Center
Mon 04:47:50 PM 43.9856 -103.4872 91° East 436 502 35,000  Level Denver Center
Mon 04:48:51 PM 43.9819 -103.3275 92° East 432 497 35,000  Level Denver Center
Mon 04:49:53 PM 43.9797 -103.1683 91° East 431 496 35,000  Level Denver Center
Mon 04:50:55 PM 43.9753 -102.9836 92° East 429 494 35,000  Level Denver Center
Mon 04:51:56 PM 43.9719 -102.8100 91° East 429 494 35,000  Level Denver Center
Mon 04:52:58 PM 43.9642 -102.6433 94° East 431 496 35,000  Level Denver Center
Mon 04:54:00 PM 43.9600 -102.4800 92° East 429 494 35,000  Level Denver Center
Mon 04:55:02 PM 43.9525 -102.3153 94° East 429 494 35,000  Level Denver Center
Mon 04:56:03 PM 43.9467 -102.1517 93° East 428 493 35,000  Level Denver Center
Mon 04:57:05 PM 43.9408 -101.9864 93° East 429 494 35,000  Level Denver Center
Mon 04:58:07 PM 43.9353 -101.8214 93° East 431 496 35,000  Level Denver Center
Mon 04:59:08 PM 43.9322 -101.6239 91° East 430 495 35,000  Level Denver Center
Mon 04:59:26 PM 43.9283 -101.5869 98° East 433 498 35,000  Level Minneapolis Center
Mon 05:00:27 PM 43.9214 -101.4175 93° East 437 503 35,000  Level Minneapolis Center
Mon 05:01:12 PM 43.9183 -101.2833 92° East 444 511 35,000  Level Denver Center
Mon 05:01:29 PM 43.9181 -101.2528 91° East 437 503 35,000  Level Minneapolis Center
Mon 05:02:14 PM 43.9128 -101.1139 93° East 444 511 35,000  Level Denver Center
Mon 05:02:43 PM 43.9106 -101.0808 95° East 442 509 35,000  Level Minneapolis Center
Mon 05:03:45 PM 43.9011 -100.8442 93° East 443 510 35,000  Level Minneapolis Center
Mon 05:04:47 PM 43.8933 -100.6736 94° East 444 511 35,000  Level Minneapolis Center
Mon 05:05:49 PM 43.8861 -100.5047 93° East 443 510 35,000  Level Minneapolis Center
Mon 05:06:51 PM 43.8775 -100.3347 94° East 443 510 35,000  Level Minneapolis Center
Mon 05:07:53 PM 43.8686 -100.1628 94° East 446 513 35,000  Level Minneapolis Center
Mon 05:08:54 PM 43.8603 -99.9928 94° East 446 513 35,000  Level Minneapolis Center
Mon 05:09:56 PM 43.8500 -99.7872 94° East 446 513 35,000  Level Minneapolis Center
Mon 05:10:58 PM 43.8394 -99.6172 95° East 447 514 35,000  Level Minneapolis Center
Mon 05:12:00 PM 43.8314 -99.4458 94° East 447 514 35,000  Level Minneapolis Center
Mon 05:13:02 PM 43.8219 -99.2736 94° East 449 517 35,000  Level Minneapolis Center
Mon 05:14:04 PM 43.8108 -99.1014 95° East 450 518 35,000  Level Minneapolis Center
Mon 05:15:06 PM 43.8011 -98.9286 94° East 452 520 35,000  Level Minneapolis Center
Mon 05:16:07 PM 43.7883 -98.7222 95° East 450 518 35,000  Level Minneapolis Center
Mon 05:17:09 PM 43.7783 -98.5686 95° East 450 518 35,000  Level Minneapolis Center
Mon 05:18:11 PM 43.7669 -98.3967 95° East 451 519 35,000  Level Minneapolis Center
Mon 05:19:13 PM 43.7539 -98.1894 95° East 451 519 35,000  Level Minneapolis Center
Mon 05:20:15 PM 43.7417 -98.0175 96° East 452 520 35,000  Level Minneapolis Center
Mon 05:21:16 PM 43.7297 -97.8422 95° East 457 526 35,000  Level Minneapolis Center
Mon 05:22:18 PM 43.7167 -97.6658 96° East 462 532 35,000  Level Minneapolis Center
Mon 05:23:20 PM 43.7039 -97.4889 96° East 466 536 35,000  Level Minneapolis Center
Mon 05:24:21 PM 43.6900 -97.3117 96° East 467 537 35,000  Level Minneapolis Center
Mon 05:25:23 PM 43.6739 -97.0958 96° East 472 543 35,000  Level Minneapolis Center
Mon 05:26:25 PM 43.6600 -96.9156 96° East 476 548 35,000  Level Minneapolis Center
Mon 05:27:26 PM 43.6450 -96.7414 97° East 465 535 35,000  Level Minneapolis Center
Mon 05:28:28 PM 43.6181 -96.5689 102° East 463 533 35,000  Level Minneapolis Center
Mon 05:29:30 PM 43.5933 -96.3975 101° East 460 529 35,000  Level Minneapolis Center
Mon 05:30:32 PM 43.5675 -96.2258 102° East 461 531 35,000  Level Minneapolis Center
Mon 05:31:33 PM 43.5369 -96.0206 102° East 460 529 35,000  Level Minneapolis Center
Mon 05:32:35 PM 43.5111 -95.8475 102° East 465 535 35,000  Level Minneapolis Center
Mon 05:33:37 PM 43.4839 -95.6742 102° East 466 536 35,000  Level Minneapolis Center
Mon 05:34:38 PM 43.4569 -95.4986 102° East 471 542 35,000  Level Minneapolis Center
Mon 05:35:40 PM 43.4292 -95.3239 102° East 471 542 35,000  Level Minneapolis Center
Mon 05:36:42 PM 43.4017 -95.1478 102° East 472 543 35,000  Level Minneapolis Center
Mon 05:37:43 PM 43.3675 -94.9364 102° East 474 545 35,000  Level Minneapolis Center
Mon 05:38:45 PM 43.3375 -94.7614 103° East 476 548 35,000  Level Minneapolis Center
Mon 05:39:47 PM 43.3092 -94.5864 102° East 473 544 35,000  Level Minneapolis Center
Mon 05:40:48 PM 43.2808 -94.4100 102° East 475 547 35,000  Level Minneapolis Center
Mon 05:41:50 PM 43.2478 -94.2169 103° East 477 549 35,000  Level Minneapolis Center
Mon 05:42:52 PM 43.2178 -94.0431 103° East 476 548 35,000  Level Minneapolis Center
Mon 05:43:53 PM 43.1878 -93.8683 103° East 475 547 35,000  Level Minneapolis Center
Mon 05:44:54 PM 43.1639 -93.7286 103° East 475 547 35,000  Level Minneapolis Center
Mon 05:45:56 PM 43.1269 -93.5189 104° East 477 549 35,000  Level Minneapolis Center
Mon 05:46:58 PM 43.0975 -93.3439 103° East 476 548 35,000  Level Minneapolis Center
Mon 05:48:00 PM 43.0814 -93.1264 96° East 480 552 35,000  Level Minneapolis Center
Mon 05:49:01 PM 43.0694 -92.9453 95° East 484 557 35,000  Level Minneapolis Center
Mon 05:50:03 PM 43.0586 -92.7644 95° East 482 555 35,000  Level Minneapolis Center
Mon 05:51:05 PM 43.0456 -92.5903 96° East 472 543 35,000  Level Minneapolis Center
Mon 05:52:06 PM 43.0331 -92.4192 96° East 462 532 35,000  Level Minneapolis Center
Mon 05:52:21 PM 43.0292 -92.3856 99° East 459 528 35,000  Level Chicago Center
Mon 05:53:08 PM 43.0206 -92.2481 95° East 457 526 35,000 -290 Level Minneapolis Center
Mon 05:53:23 PM 43.0133 -92.1786 98° East 461 531 34,700 -1,180 Descending Chicago Center
Mon 05:54:09 PM 43.0047 -92.0378 95° East 465 535 33,800 -1,065 Descending Minneapolis Center
Mon 05:54:25 PM 43.0011 -92.0031 98° East 465 535 33,600 -923 Descending Chicago Center
Mon 05:55:27 PM 42.9886 -91.8283 96° East 464 534 32,600 -968 Descending Chicago Center
Mon 05:56:29 PM 42.9750 -91.6486 96° East 471 542 31,600 -897 Descending Chicago Center
Mon 05:57:14 PM 42.9633 -91.5025 96° East 473 544 31,000 -340 Descending Minneapolis Center
Mon 05:58:15 PM 42.9350 -91.3300 103° East 466 536 31,000  Level Minneapolis Center
Mon 05:58:34 PM 42.9300 -91.2972 102° East 463 533 31,000  Level Chicago Center
Mon 05:59:36 PM 42.8964 -91.0892 102° East 469 540 31,000  Level Chicago Center
Mon 06:00:38 PM 42.8692 -90.9161 102° East 469 540 31,000  Level Chicago Center
Mon 06:01:40 PM 42.8397 -90.7417 103° East 475 547 31,000  Level Chicago Center
Mon 06:02:42 PM 42.8103 -90.5664 103° East 478 550 31,000 -629 Level Chicago Center
Mon 06:03:44 PM 42.7822 -90.3936 102° East 473 544 29,700 -1,548 Descending Chicago Center
Mon 06:04:46 PM 42.7469 -90.1875 103° East 469 540 27,800 -1,645 Descending Chicago Center
Mon 06:05:48 PM 42.7189 -90.0183 103° East 463 533 26,300 -1,548 Descending Chicago Center
Mon 06:06:50 PM 42.6856 -89.8375 104° East 454 522 24,600 -1,935 Descending Chicago Center
Mon 06:07:52 PM 42.6569 -89.6750 103° East 445 512 22,300 -2,160 Descending Chicago Center
Mon 06:08:55 PM 42.6297 -89.5183 103° East 430 495 20,100 -1,920 Descending Chicago Center
Mon 06:09:57 PM 42.6031 -89.3714 104° East 406 467 18,300 -1,839 Descending Chicago Center
Mon 06:10:59 PM 42.5786 -89.2278 103° East 394 453 16,300 -1,887 Descending Chicago Center
Mon 06:12:01 PM 42.5436 -89.0608 106° East 395 455 14,400 -1,694 Descending Chicago Center
Mon 06:13:03 PM 42.5044 -88.9289 112° Southeast 384 442 12,800 -1,500 Descending Chicago Center
Mon 06:14:05 PM 42.4656 -88.8003 112° Southeast 374 430 11,300 -1,258 Descending Chicago Center
Mon 06:15:07 PM 42.4303 -88.6803 112° Southeast 355 409 10,200 -1,113 Descending Chicago Center
Mon 06:16:09 PM 42.3981 -88.5792 113° Southeast 310 357 9,000 -581 Descending Chicago Center
Mon 06:17:11 PM 42.3769 -88.4461 102° East 313 360 9,000  Level Chicago Center
Mon 06:18:13 PM 42.3481 -88.3403 110° East 298 343 9,000 -532 Level Chicago Center
Mon 06:19:15 PM 42.2964 -88.2806 139° Southeast 279 321 7,900 -960 Descending Chicago Center
Mon 06:20:18 PM 42.2261 -88.2031 141° Southeast 271 312 7,000 -960 Descending Chicago Center
Mon 06:21:20 PM 42.1675 -88.1353 139° Southeast 277 319 5,900 -1,065 Descending Chicago Center
Mon 06:22:22 PM 42.1158 -88.0733 138° Southeast 254 292 4,800 -1,297 Descending Chicago Center
Mon 06:23:11 PM 42.0667 -88.0333 149° Southeast 214 246 3,500 -1,592 Descending Chicago TRACON

Login

Don't have an account? Register now (free) for customized features, flight alerts, and more!